Time;durP1;ratioP1;P1;durP2;ratioP2;P2;SDS_P1;SDS_P2;PMS_P1;PMS_P2;Temp;Humidity;BMP_temperature;BMP_pressure;BME280_temperature;BME280_humidity;BME280_pressure;Samples;Min_cycle;Max_cycle;Signal;HPM_P1;HPM_P2
2020/12/29 00:00:52;;;;;;;1.02;0.50;;;13.40;67.40;;;;;;5048554;28;20124;-76
2020/12/29 00:03:21;;;;;;;0.40;0.30;;;13.40;67.40;;;;;;5034341;28;20041;-75
2020/12/29 00:05:47;;;;;;;0.32;0.30;;;13.40;67.40;;;;;;5052363;28;20184;-76
2020/12/29 00:08:35;;;;;;;0.40;0.40;;;13.40;67.40;;;;;;5047677;28;20076;-76
2020/12/29 00:11:05;;;;;;;1.85;0.55;;;13.40;67.40;;;;;;5054575;28;20560;-76
2020/12/29 00:13:45;;;;;;;0.63;0.43;;;13.40;67.40;;;;;;5052597;28;20033;-83
2020/12/29 00:16:28;;;;;;;0.28;0.20;;;13.40;67.40;;;;;;5046158;28;20033;-76
2020/12/29 00:18:55;;;;;;;0.70;0.30;;;13.40;67.50;;;;;;5051960;28;20092;-76
2020/12/29 00:21:25;;;;;;;0.30;0.30;;;13.40;67.40;;;;;;5049498;28;20112;-78
2020/12/29 00:23:56;;;;;;;0.68;0.50;;;13.40;67.50;;;;;;5045144;28;20486;-79
2020/12/29 00:26:25;;;;;;;0.40;0.40;;;13.40;67.50;;;;;;5040201;28;20029;-76
2020/12/29 00:28:54;;;;;;;0.40;0.30;;;13.40;67.40;;;;;;5046205;28;20355;-76
2020/12/29 00:31:22;;;;;;;0.63;0.40;;;13.40;67.40;;;;;;5052303;28;20049;-76
2020/12/29 00:34:00;;;;;;;0.60;0.45;;;13.40;67.50;;;;;;5033647;28;20056;-77
2020/12/29 00:36:40;;;;;;;0.55;0.40;;;13.40;67.50;;;;;;5034280;28;20035;-76
2020/12/29 00:39:14;;;;;;;0.55;0.55;;;13.40;67.40;;;;;;5052236;28;20051;-76
2020/12/29 00:41:47;;;;;;;1.40;0.60;;;13.40;67.50;;;;;;5051797;28;20025;-76
2020/12/29 00:44:23;;;;;;;0.50;0.50;;;13.40;67.50;;;;;;5016833;28;20037;-76
2020/12/29 00:46:53;;;;;;;0.40;0.30;;;13.40;67.40;;;;;;5028583;28;20076;-78
2020/12/29 00:49:32;;;;;;;1.10;0.30;;;13.40;67.40;;;;;;5051853;28;20039;-76
2020/12/29 00:52:02;;;;;;;0.40;0.40;;;13.40;67.40;;;;;;5055949;28;20037;-77
2020/12/29 00:54:42;;;;;;;0.30;0.30;;;13.40;67.40;;;;;;5034481;28;20447;-76
2020/12/29 00:57:17;;;;;;;0.50;0.40;;;13.40;67.50;;;;;;5055858;28;20017;-77
2020/12/29 00:59:48;;;;;;;0.40;0.40;;;13.40;67.40;;;;;;5055777;28;20029;-77
2020/12/29 01:02:14;;;;;;;0.75;0.57;;;13.40;67.40;;;;;;5026319;28;20021;-77
2020/12/29 01:04:47;;;;;;;0.32;0.32;;;13.40;67.40;;;;;;5051143;28;20055;-76
2020/12/29 01:07:15;;;;;;;0.30;0.30;;;13.40;67.40;;;;;;5028549;28;20037;-76
2020/12/29 01:09:50;;;;;;;;;;;13.40;67.40;;;;;;5048353;28;20120;-76
2020/12/29 01:12:23;;;;;;;0.20;0.20;;;13.40;67.40;;;;;;5055418;28;20366;-76
2020/12/29 01:15:04;;;;;;;0.57;0.50;;;13.40;67.40;;;;;;5029707;28;20395;-76
2020/12/29 01:17:30;;;;;;;0.30;0.30;;;13.40;67.40;;;;;;5048744;28;20025;-76
2020/12/29 01:19:55;;;;;;;0.22;0.20;;;13.40;67.40;;;;;;5029304;28;20044;-81
2020/12/29 01:22:21;;;;;;;0.88;0.50;;;13.40;67.40;;;;;;5055217;28;20048;-77
2020/12/29 01:24:47;;;;;;;0.82;0.80;;;13.40;67.40;;;;;;5055514;28;20028;-76
2020/12/29 01:27:16;;;;;;;1.35;0.52;;;13.40;67.40;;;;;;5034979;28;20112;-76
2020/12/29 01:30:03;;;;;;;0.25;0.20;;;13.40;67.40;;;;;;5049701;28;20037;-77
2020/12/29 01:32:30;;;;;;;1.10;0.60;;;13.40;67.50;;;;;;5029679;28;20386;-76
2020/12/29 01:34:56;;;;;;;0.30;0.30;;;13.40;67.40;;;;;;5055096;28;20045;-77
2020/12/29 01:37:28;;;;;;;0.50;0.38;;;13.40;67.50;;;;;;5035085;28;20024;-77
2020/12/29 01:39:58;;;;;;;0.30;0.30;;;13.40;67.40;;;;;;5050231;28;20029;-76
2020/12/29 01:42:24;;;;;;;0.60;0.40;;;13.40;67.40;;;;;;5053783;28;20024;-77
2020/12/29 01:44:55;;;;;;;0.52;0.30;;;13.40;67.40;;;;;;5037093;28;20025;-77
2020/12/29 01:47:25;;;;;;;0.52;0.40;;;13.40;67.40;;;;;;5036944;28;20036;-76
2020/12/29 01:50:00;;;;;;;0.57;0.43;;;13.40;67.40;;;;;;5036931;28;20037;-76
2020/12/29 01:52:31;;;;;;;0.63;0.40;;;13.40;67.40;;;;;;5054100;28;20031;-76
2020/12/29 01:55:20;;;;;;;0.30;0.30;;;13.40;67.40;;;;;;5054839;28;20079;-82
2020/12/29 01:57:55;;;;;;;0.50;0.40;;;13.40;67.40;;;;;;5041166;28;20069;-76
2020/12/29 02:00:23;;;;;;;0.38;0.38;;;13.40;67.40;;;;;;5033970;28;20060;-77
2020/12/29 02:02:59;;;;;;;0.40;0.30;;;13.40;67.50;;;;;;5053903;28;20516;-76
2020/12/29 02:05:40;;;;;;;0.40;0.40;;;13.40;67.40;;;;;;5054809;28;20056;-76
2020/12/29 02:08:21;;;;;;;0.47;0.32;;;13.40;67.40;;;;;;5054420;28;20079;-77
2020/12/29 02:10:47;;;;;;;0.43;0.32;;;13.40;67.40;;;;;;5029960;28;20036;-77
2020/12/29 02:13:16;;;;;;;0.40;0.40;;;13.50;67.40;;;;;;5054027;28;20393;-76
2020/12/29 02:15:47;;;;;;;0.40;0.40;;;13.40;67.40;;;;;;5053961;28;20030;-77
2020/12/29 02:18:18;;;;;;;0.35;0.30;;;13.50;67.40;;;;;;5054156;28;20079;-77
2020/12/29 02:20:43;;;;;;;0.50;0.40;;;13.40;67.40;;;;;;5036372;28;20029;-77
2020/12/29 02:23:20;;;;;;;0.30;0.30;;;13.40;67.40;;;;;;5054053;28;20021;-81
2020/12/29 02:25:51;;;;;;;0.30;0.30;;;13.40;67.40;;;;;;5045152;28;20025;-76
2020/12/29 02:28:17;;;;;;;0.30;0.30;;;13.40;67.40;;;;;;5036255;28;20390;-77
2020/12/29 02:30:43;;;;;;;0.60;0.60;;;13.40;67.40;;;;;;5035451;28;20041;-79
2020/12/29 02:33:09;;;;;;;0.32;0.32;;;13.40;67.40;;;;;;5040657;28;20049;-76
2020/12/29 02:35:34;;;;;;;0.35;0.35;;;13.40;67.40;;;;;;5033039;28;20029;-76
2020/12/29 02:38:13;;;;;;;0.32;0.32;;;13.40;67.40;;;;;;5031594;28;20099;-76
2020/12/29 02:40:38;;;;;;;0.40;0.40;;;13.40;67.40;;;;;;5050309;28;20449;-82
2020/12/29 02:43:04;;;;;;;0.50;0.40;;;13.40;67.40;;;;;;5041968;28;20035;-76
2020/12/29 02:45:34;;;;;;;0.50;0.40;;;13.40;67.40;;;;;;5043954;28;20109;-77
2020/12/29 02:48:02;;;;;;;0.52;0.40;;;13.40;67.40;;;;;;5050027;28;20028;-77
2020/12/29 02:50:40;;;;;;;0.43;0.40;;;13.40;67.40;;;;;;5033220;28;20447;-77
2020/12/29 02:53:31;;;;;;;0.43;0.30;;;13.40;67.40;;;;;;5044661;28;20036;-85
2020/12/29 02:56:04;;;;;;;0.20;0.20;;;13.40;67.40;;;;;;5047167;28;20492;-76
2020/12/29 02:58:30;;;;;;;0.55;0.40;;;13.40;67.40;;;;;;5051811;28;20109;-76
2020/12/29 03:01:00;;;;;;;0.30;0.30;;;13.40;67.40;;;;;;5033318;28;20456;-77
2020/12/29 03:03:30;;;;;;;0.60;0.40;;;13.40;67.40;;;;;;5033316;28;20085;-78
2020/12/29 03:05:58;;;;;;;0.25;0.25;;;13.40;67.40;;;;;;5042318;28;20091;-77
2020/12/29 03:08:28;;;;;;;0.35;0.30;;;13.40;67.40;;;;;;5044585;28;20036;-76
2020/12/29 03:11:06;;;;;;;0.20;0.20;;;13.40;67.40;;;;;;5028129;28;20099;-77
2020/12/29 03:13:37;;;;;;;0.20;0.20;;;13.40;67.40;;;;;;5042056;28;20036;-77
2020/12/29 03:16:14;;;;;;;0.20;0.20;;;13.40;67.40;;;;;;5043027;28;20025;-76
2020/12/29 03:18:53;;;;;;;0.40;0.32;;;13.40;67.40;;;;;;5031940;28;20489;-77
2020/12/29 03:21:31;;;;;;;0.47;0.40;;;13.40;67.40;;;;;;5033111;28;20128;-76
2020/12/29 03:24:02;;;;;;;0.30;0.30;;;13.40;67.50;;;;;;5041250;28;20021;-77
2020/12/29 03:26:33;;;;;;;0.50;0.50;;;13.40;67.50;;;;;;5042220;28;20037;-77
2020/12/29 03:29:11;;;;;;;0.40;0.30;;;13.40;67.40;;;;;;5046954;28;20402;-76
2020/12/29 03:31:45;;;;;;;0.40;0.40;;;13.40;67.40;;;;;;5041961;28;20028;-76
2020/12/29 03:34:27;;;;;;;0.28;0.28;;;13.50;67.30;;;;;;5030015;28;20045;-77
2020/12/29 03:36:53;;;;;;;0.43;0.30;;;13.40;67.40;;;;;;5012125;28;20120;-76
2020/12/29 03:39:19;;;;;;;0.40;0.30;;;13.40;67.40;;;;;;5030674;28;20112;-83
2020/12/29 03:41:44;;;;;;;0.88;0.50;;;13.40;67.40;;;;;;5013180;28;20117;-76
2020/12/29 03:44:10;;;;;;;0.73;0.35;;;13.40;67.40;;;;;;5011364;28;20398;-76
2020/12/29 03:46:41;;;;;;;0.20;0.20;;;13.40;67.50;;;;;;5012726;28;20033;-77
2020/12/29 03:49:11;;;;;;;0.30;0.30;;;13.40;67.40;;;;;;5026066;28;20040;-76
2020/12/29 03:51:41;;;;;;;0.57;0.45;;;13.40;67.40;;;;;;5024878;28;20065;-77
2020/12/29 03:54:12;;;;;;;0.57;0.47;;;13.40;67.40;;;;;;5007873;28;20052;-76
2020/12/29 03:56:38;;;;;;;1.02;0.40;;;13.40;67.40;;;;;;5012128;28;20030;-88
2020/12/29 03:59:04;;;;;;;0.30;0.30;;;13.40;67.40;;;;;;5027513;28;20447;-77
2020/12/29 04:01:34;;;;;;;0.43;0.30;;;13.40;67.40;;;;;;5028789;28;20025;-76
2020/12/29 04:04:04;;;;;;;0.40;0.40;;;13.40;67.40;;;;;;5012400;28;20433;-77
2020/12/29 04:06:34;;;;;;;0.40;0.30;;;13.40;67.40;;;;;;5023040;28;20084;-77
2020/12/29 04:09:01;;;;;;;0.50;0.45;;;13.40;67.40;;;;;;5008549;28;20033;-78
2020/12/29 04:11:27;;;;;;;0.43;0.32;;;13.40;67.40;;;;;;5008908;28;20462;-76
2020/12/29 04:13:55;;;;;;;0.75;0.50;;;13.40;67.40;;;;;;5012083;28;20029;-79
2020/12/29 04:16:21;;;;;;;;;;;13.40;67.40;;;;;;5029102;28;20134;-78
2020/12/29 04:18:47;;;;;;;0.30;0.30;;;13.40;67.40;;;;;;5002484;28;19954;-76
2020/12/29 04:21:17;;;;;;;0.63;0.40;;;13.40;67.40;;;;;;5029371;28;20033;-77
2020/12/29 04:23:52;;;;;;;0.57;0.47;;;13.40;67.40;;;;;;5024213;28;20022;-77
2020/12/29 04:26:22;;;;;;;0.80;0.30;;;13.40;67.40;;;;;;5026911;28;20048;-76
2020/12/29 04:28:52;;;;;;;0.45;0.40;;;13.40;67.40;;;;;;5027779;28;20120;-76
2020/12/29 04:31:30;;;;;;;0.40;0.40;;;13.40;67.50;;;;;;5009130;28;20052;-77
2020/12/29 04:33:55;;;;;;;0.30;0.30;;;13.40;67.40;;;;;;5024373;28;20060;-77
2020/12/29 04:36:21;;;;;;;0.20;0.20;;;13.40;67.40;;;;;;5009657;28;20037;-78
2020/12/29 04:38:51;;;;;;;0.30;0.30;;;13.40;67.50;;;;;;5013930;28;20036;-77
2020/12/29 04:41:22;;;;;;;0.47;0.40;;;13.40;67.40;;;;;;5031457;28;20386;-80
2020/12/29 04:43:55;;;;;;;0.40;0.30;;;13.40;67.50;;;;;;5028411;28;20063;-76
2020/12/29 04:46:21;;;;;;;0.30;0.28;;;13.40;67.40;;;;;;5033364;28;20112;-78
2020/12/29 04:48:47;;;;;;;0.40;0.40;;;13.40;67.40;;;;;;5028391;28;20061;-76
2020/12/29 04:51:16;;;;;;;0.30;0.30;;;13.40;67.40;;;;;;5027059;28;20037;-76
2020/12/29 04:53:47;;;;;;;;;;;13.40;67.40;;;;;;5012383;28;20064;-77
2020/12/29 04:56:15;;;;;;;0.40;0.30;;;13.40;67.40;;;;;;5031118;28;20000;-77
2020/12/29 04:58:40;;;;;;;0.40;0.40;;;13.40;67.40;;;;;;5013648;28;20432;-76
2020/12/29 05:01:22;;;;;;;0.22;0.22;;;13.40;67.40;;;;;;5002981;28;20038;-76
2020/12/29 05:03:52;;;;;;;0.40;0.30;;;13.40;67.50;;;;;;5008065;28;20112;-74
2020/12/29 05:06:22;;;;;;;0.20;0.20;;;13.40;67.50;;;;;;5015586;28;20454;-77
2020/12/29 05:08:49;;;;;;;0.35;0.30;;;13.40;67.40;;;;;;5027837;28;20403;-75
2020/12/29 05:11:18;;;;;;;0.47;0.30;;;13.40;67.50;;;;;;5036130;28;20033;-75
2020/12/29 05:13:45;;;;;;;0.73;0.60;;;13.40;67.50;;;;;;5004918;28;20072;-74
2020/12/29 05:16:11;;;;;;;0.55;0.40;;;13.40;67.50;;;;;;5019064;28;20030;-75
2020/12/29 05:18:37;;;;;;;1.27;0.63;;;13.40;67.50;;;;;;4999992;28;20104;-76
2020/12/29 05:21:18;;;;;;;1.55;0.57;;;13.40;67.50;;;;;;5033160;28;20061;-77
2020/12/29 05:23:51;;;;;;;0.55;0.30;;;13.40;67.50;;;;;;5012073;28;20037;-77
2020/12/29 05:26:35;;;;;;;0.45;0.40;;;13.40;67.50;;;;;;5030475;28;20025;-80
2020/12/29 05:29:03;;;;;;;0.22;0.20;;;13.40;67.50;;;;;;5011044;28;20056;-76
2020/12/29 05:31:31;;;;;;;0.40;0.40;;;13.40;67.50;;;;;;5025961;28;20025;-76
2020/12/29 05:34:24;;;;;;;0.93;0.30;;;13.40;67.50;;;;;;5027020;28;20045;-77
2020/12/29 05:37:32;;;;;;;0.32;0.30;;;13.40;67.50;;;;;;5040180;28;20397;-76
2020/12/29 05:40:35;;;;;;;0.52;0.43;;;13.40;67.50;;;;;;5018942;28;20366;-76
2020/12/29 05:43:14;;;;;;;0.32;0.30;;;13.40;67.50;;;;;;5046533;28;20061;-76
2020/12/29 05:45:47;;;;;;;0.65;0.43;;;13.40;67.50;;;;;;5032451;28;20029;-76
2020/12/29 05:48:19;;;;;;;0.60;0.40;;;13.40;67.40;;;;;;5034685;28;20140;-77
2020/12/29 05:50:48;;;;;;;0.40;0.40;;;13.40;67.50;;;;;;5022343;28;20041;-76
2020/12/29 05:53:22;;;;;;;0.38;0.25;;;13.40;67.50;;;;;;5037234;28;20025;-76
2020/12/29 05:55:52;;;;;;;0.20;0.20;;;13.40;67.40;;;;;;5047895;28;20063;-77
2020/12/29 05:58:18;;;;;;;0.32;0.30;;;13.40;67.50;;;;;;5037197;28;20052;-76
2020/12/29 06:00:48;;;;;;;0.32;0.32;;;13.40;67.50;;;;;;5036843;28;20029;-76
2020/12/29 06:03:14;;;;;;;0.47;0.30;;;13.40;67.50;;;;;;5055121;28;20067;-76
2020/12/29 06:05:56;;;;;;;0.32;0.22;;;13.40;67.50;;;;;;5054299;28;20028;-76
2020/12/29 06:08:44;;;;;;;0.45;0.45;;;13.40;67.50;;;;;;5048784;28;20018;-76
2020/12/29 06:11:21;;;;;;;0.47;0.30;;;13.40;67.40;;;;;;5039587;28;20037;-76
2020/12/29 06:14:17;;;;;;;1.00;0.50;;;13.40;67.50;;;;;;5025202;28;20040;-78
2020/12/29 06:16:47;;;;;;;0.77;0.40;;;13.40;67.50;;;;;;5050857;28;20087;-76
2020/12/29 06:19:28;;;;;;;0.20;0.15;;;13.40;67.50;;;;;;5054335;28;20071;-76
2020/12/29 06:22:09;;;;;;;0.35;0.35;;;13.40;67.50;;;;;;5050573;28;20075;-77
2020/12/29 06:24:43;;;;;;;0.30;0.30;;;13.40;67.50;;;;;;5027793;28;20029;-76
2020/12/29 06:27:30;;;;;;;0.77;0.30;;;13.40;67.50;;;;;;5038205;28;20021;-76
2020/12/29 06:30:12;;;;;;;0.40;0.40;;;13.40;67.50;;;;;;5052582;28;20036;-76
2020/12/29 06:32:53;;;;;;;0.20;0.20;;;13.40;67.50;;;;;;5016850;28;20084;-76
2020/12/29 06:35:26;;;;;;;0.47;0.40;;;13.40;67.50;;;;;;5053392;28;20052;-76
2020/12/29 06:38:06;;;;;;;0.22;0.22;;;13.40;67.50;;;;;;5036395;28;20029;-76
2020/12/29 06:40:57;;;;;;;0.22;0.20;;;13.40;67.50;;;;;;5055663;28;20032;-76
2020/12/29 06:43:23;;;;;;;0.77;0.30;;;13.50;67.50;;;;;;5038997;28;20055;-76
2020/12/29 06:46:09;;;;;;;1.05;0.35;;;13.40;67.50;;;;;;5050730;28;20041;-76
2020/12/29 06:48:41;;;;;;;0.30;0.22;;;13.40;67.50;;;;;;5026224;28;20025;-76
2020/12/29 06:51:14;;;;;;;0.47;0.47;;;13.40;67.50;;;;;;5035834;28;20033;-76
2020/12/29 06:53:41;;;;;;;0.32;0.32;;;13.40;67.50;;;;;;5053453;28;20374;-76
2020/12/29 06:56:39;;;;;;;0.30;0.30;;;13.40;67.50;;;;;;5035549;28;20029;-78
2020/12/29 06:59:24;;;;;;;0.60;0.40;;;13.40;67.50;;;;;;5047480;28;20028;-76
2020/12/29 07:01:52;;;;;;;0.30;0.30;;;13.40;67.50;;;;;;5052834;28;20060;-76
2020/12/29 07:04:20;;;;;;;0.57;0.40;;;13.40;67.50;;;;;;5042178;28;20021;-76
2020/12/29 07:06:50;;;;;;;0.47;0.40;;;13.40;67.50;;;;;;5036012;28;20475;-76
2020/12/29 07:09:19;;;;;;;0.60;0.50;;;13.40;67.50;;;;;;5044759;28;20049;-76
2020/12/29 07:12:07;;;;;;;0.30;0.28;;;13.40;67.50;;;;;;5045031;28;20033;-76
2020/12/29 07:14:40;;;;;;;0.52;0.40;;;13.40;67.50;;;;;;5050169;28;20116;-76
2020/12/29 07:17:12;;;;;;;0.57;0.45;;;13.40;67.50;;;;;;5047734;28;20061;-76
2020/12/29 07:19:43;;;;;;;0.43;0.32;;;13.40;67.50;;;;;;5040336;28;20386;-76
2020/12/29 07:22:19;;;;;;;0.50;0.30;;;13.40;67.50;;;;;;5053245;28;20033;-76
2020/12/29 07:24:53;;;;;;;1.05;0.50;;;13.40;67.50;;;;;;5026877;28;20221;-76
2020/12/29 07:27:20;;;;;;;0.30;0.30;;;13.50;67.50;;;;;;5032532;28;20359;-79
2020/12/29 07:30:00;;;;;;;0.30;0.30;;;13.40;67.40;;;;;;5035484;28;20037;-76
2020/12/29 07:32:26;;;;;;;0.50;0.25;;;13.50;67.50;;;;;;5047342;28;20035;-77
2020/12/29 07:34:57;;;;;;;0.35;0.30;;;13.40;67.50;;;;;;5053091;28;20052;-76
2020/12/29 07:37:23;;;;;;;0.82;0.50;;;13.40;67.50;;;;;;5052091;28;20136;-76
2020/12/29 07:39:49;;;;;;;0.30;0.30;;;13.50;67.50;;;;;;5035524;28;20033;-76
2020/12/29 07:42:32;;;;;;;0.35;0.35;;;13.40;67.50;;;;;;5061067;28;20131;-76
2020/12/29 07:44:58;;;;;;;0.30;0.30;;;13.50;67.50;;;;;;5046819;28;20032;-76
2020/12/29 07:47:42;;;;;;;0.30;0.30;;;13.50;67.40;;;;;;5058953;28;20024;-76
2020/12/29 07:50:08;;;;;;;0.80;0.32;;;13.40;67.40;;;;;;5048261;28;20440;-77
2020/12/29 07:52:42;;;;;;;0.30;0.30;;;13.40;67.40;;;;;;5034990;28;20025;-76
2020/12/29 07:55:16;;;;;;;0.30;0.30;;;13.40;67.40;;;;;;5052944;28;20025;-76
2020/12/29 07:57:43;;;;;;;0.38;0.10;;;13.50;67.40;;;;;;5035102;28;20534;-76
2020/12/29 08:00:27;;;;;;;0.35;0.30;;;13.40;67.40;;;;;;5055420;28;20025;-76
2020/12/29 08:02:59;;;;;;;0.38;0.35;;;13.50;67.40;;;;;;5048346;28;20037;-76
2020/12/29 08:05:29;;;;;;;0.20;0.20;;;13.50;67.40;;;;;;5058014;28;20021;-76
2020/12/29 08:08:16;;;;;;;0.40;0.38;;;13.50;67.40;;;;;;5056546;28;20052;-76
2020/12/29 08:11:11;;;;;;;0.20;0.20;;;13.40;67.40;;;;;;5058660;28;20037;-76
2020/12/29 08:13:44;;;;;;;0.20;0.20;;;13.50;67.40;;;;;;5050256;28;20036;-78
2020/12/29 08:16:20;;;;;;;0.20;0.20;;;13.50;67.30;;;;;;5046771;28;20045;-76
2020/12/29 08:18:50;;;;;;;0.38;0.38;;;13.50;67.30;;;;;;5028566;28;20035;-80
2020/12/29 08:21:19;;;;;;;0.25;0.25;;;13.50;67.30;;;;;;5021636;28;20025;-76
2020/12/29 08:23:56;;;;;;;0.30;0.30;;;13.50;67.20;;;;;;5034061;28;20079;-76
2020/12/29 08:26:26;;;;;;;0.75;0.40;;;13.50;67.20;;;;;;5036303;28;20056;-76
2020/12/29 08:28:57;;;;;;;0.40;0.40;;;13.60;67.20;;;;;;5053296;28;20029;-76
2020/12/29 08:31:26;;;;;;;0.20;0.20;;;13.60;67.10;;;;;;5050805;28;20159;-77
2020/12/29 08:33:58;;;;;;;1.13;0.30;;;13.60;67.10;;;;;;5038338;28;20041;-76
2020/12/29 08:36:28;;;;;;;0.30;0.30;;;13.50;67.10;;;;;;5033809;28;20030;-76
2020/12/29 08:39:04;;;;;;;0.50;0.25;;;13.60;67.00;;;;;;5018616;28;20116;-76
2020/12/29 08:41:38;;;;;;;0.50;0.30;;;13.60;67.00;;;;;;5018477;28;20056;-76
2020/12/29 08:44:16;;;;;;;0.47;0.45;;;13.60;67.00;;;;;;5037603;28;20029;-76
2020/12/29 08:46:46;;;;;;;0.40;0.40;;;13.60;67.00;;;;;;5024690;28;20037;-76
2020/12/29 08:49:17;;;;;;;0.32;0.32;;;13.60;67.00;;;;;;5029546;28;20017;-77
2020/12/29 08:51:45;;;;;;;0.70;0.40;;;13.60;67.10;;;;;;5013558;28;20056;-75
2020/12/29 08:54:19;;;;;;;0.22;0.22;;;13.60;67.00;;;;;;5007976;28;20424;-77
2020/12/29 08:56:46;;;;;;;0.45;0.28;;;13.60;67.10;;;;;;5025693;28;20434;-77
2020/12/29 08:59:19;;;;;;;0.40;0.30;;;13.60;67.00;;;;;;5022902;28;20040;-80
2020/12/29 09:02:12;;;;;;;0.20;0.20;;;13.60;67.10;;;;;;5024774;28;20045;-76
2020/12/29 09:04:42;;;;;;;0.40;0.30;;;13.50;67.10;;;;;;5025814;28;20065;-76
2020/12/29 09:07:14;;;;;;;0.30;0.30;;;13.60;67.00;;;;;;5033276;28;20036;-76
2020/12/29 09:10:03;;;;;;;0.20;0.20;;;13.60;67.00;;;;;;5027035;28;20073;-77
2020/12/29 09:12:42;;;;;;;0.30;0.30;;;13.60;67.00;;;;;;5030315;28;20170;-76
2020/12/29 09:15:32;;;;;;;0.20;0.20;;;13.60;67.00;;;;;;5024575;28;20040;-76
2020/12/29 09:18:12;;;;;;;0.15;0.15;;;13.60;67.00;;;;;;5010377;28;20032;-76
2020/12/29 09:20:51;;;;;;;0.90;0.55;;;13.60;66.90;;;;;;5025813;28;20026;-76
2020/12/29 09:23:24;;;;;;;0.20;0.20;;;13.60;66.90;;;;;;5008390;28;20029;-77
2020/12/29 09:25:57;;;;;;;0.20;0.20;;;13.60;66.90;;;;;;5013904;28;20026;-76
2020/12/29 09:28:30;;;;;;;0.40;0.20;;;13.60;66.90;;;;;;5012969;28;20032;-76
2020/12/29 09:31:12;;;;;;;0.25;0.25;;;13.60;66.90;;;;;;5027321;28;20052;-76
2020/12/29 09:33:47;;;;;;;0.40;0.40;;;13.60;66.90;;;;;;5019619;28;20048;-79
2020/12/29 09:36:36;;;;;;;0.20;0.20;;;13.60;66.90;;;;;;5033542;28;20115;-78
2020/12/29 09:39:09;;;;;;;0.35;0.20;;;13.70;66.80;;;;;;5027365;28;20033;-80
2020/12/29 09:41:38;;;;;;;0.40;0.40;;;13.70;66.70;;;;;;5052931;28;20355;-78
2020/12/29 09:44:04;;;;;;;0.40;0.30;;;13.70;66.70;;;;;;5053442;28;20040;-77
2020/12/29 09:46:43;;;;;;;0.70;0.50;;;13.70;66.70;;;;;;5023415;28;20363;-77
2020/12/29 09:49:14;;;;;;;0.20;0.20;;;13.70;66.70;;;;;;5030048;28;20032;-78
2020/12/29 09:51:40;;;;;;;0.55;0.30;;;13.70;66.70;;;;;;5053055;28;20025;-78
2020/12/29 09:54:06;;;;;;;0.28;0.28;;;13.70;66.70;;;;;;5035634;28;20036;-79
2020/12/29 09:56:32;;;;;;;0.30;0.30;;;13.70;66.60;;;;;;5053439;28;20039;-78
2020/12/29 09:59:10;;;;;;;0.40;0.20;;;13.70;66.60;;;;;;5046691;28;20024;-78
2020/12/29 10:01:35;;;;;;;0.20;0.20;;;13.80;66.60;;;;;;5046699;28;20029;-78
2020/12/29 10:04:12;;;;;;;0.40;0.32;;;13.80;66.60;;;;;;5035571;28;20037;-78
2020/12/29 10:06:43;;;;;;;0.30;0.30;;;13.80;66.50;;;;;;5054839;28;20129;-77
2020/12/29 10:09:24;;;;;;;0.35;0.30;;;13.80;66.50;;;;;;5046806;28;20028;-78
2020/12/29 10:11:57;;;;;;;0.35;0.30;;;13.80;66.50;;;;;;5034659;28;20029;-78
2020/12/29 10:14:23;;;;;;;0.20;0.20;;;13.80;66.50;;;;;;5027524;28;20528;-78
2020/12/29 10:16:49;;;;;;;0.20;0.20;;;13.80;66.50;;;;;;5048365;28;20025;-79
2020/12/29 10:19:23;;;;;;;0.45;0.40;;;13.80;66.50;;;;;;5034429;28;20082;-82
2020/12/29 10:21:56;;;;;;;0.30;0.30;;;13.80;66.50;;;;;;5044216;28;20021;-80
2020/12/29 10:24:27;;;;;;;0.30;0.30;;;13.80;66.50;;;;;;5051847;28;20029;-77
2020/12/29 10:26:58;;;;;;;0.32;0.32;;;13.70;66.50;;;;;;5050548;28;20047;-77
2020/12/29 10:29:28;;;;;;;0.20;0.20;;;13.80;66.50;;;;;;5027839;28;20549;-76
2020/12/29 10:31:54;;;;;;;0.20;0.20;;;13.80;66.50;;;;;;5043376;28;20029;-77
2020/12/29 10:34:25;;;;;;;0.55;0.40;;;13.80;66.50;;;;;;5030226;28;20054;-77
2020/12/29 10:36:51;;;;;;;0.70;0.47;;;13.80;66.50;;;;;;5051067;28;20482;-79
2020/12/29 10:39:17;;;;;;;0.35;0.35;;;13.80;66.50;;;;;;5031394;28;20172;-78
2020/12/29 10:41:43;;;;;;;0.20;0.20;;;13.80;66.50;;;;;;5048020;28;20037;-78
2020/12/29 10:44:19;;;;;;;0.38;0.30;;;13.80;66.50;;;;;;5051209;28;20021;-83
2020/12/29 10:46:48;;;;;;;0.28;0.28;;;13.80;66.50;;;;;;5044972;28;20064;-77
2020/12/29 10:49:17;;;;;;;0.30;0.30;;;13.80;66.50;;;;;;5034795;28;20025;-77
2020/12/29 10:51:47;;;;;;;0.40;0.30;;;13.80;66.50;;;;;;5029057;28;20355;-78
2020/12/29 10:54:18;;;;;;;0.25;0.25;;;13.80;66.40;;;;;;5043417;28;20025;-78
2020/12/29 10:56:47;;;;;;;0.30;0.30;;;13.80;66.40;;;;;;5026752;28;20033;-80
2020/12/29 10:59:19;;;;;;;;;;;13.80;66.50;;;;;;5048719;28;20025;-78
2020/12/29 11:02:09;;;;;;;0.10;0.10;;;13.80;66.50;;;;;;5046636;28;19999;-77
2020/12/29 11:04:36;;;;;;;0.30;0.20;;;13.80;66.50;;;;;;5051025;28;20040;-77
2020/12/29 11:07:06;;;;;;;0.10;0.10;;;13.80;66.50;;;;;;5052085;28;20041;-79
2020/12/29 11:09:35;;;;;;;0.40;0.40;;;13.80;66.50;;;;;;5026898;28;20037;-80
2020/12/29 11:12:05;;;;;;;0.22;0.22;;;13.80;66.50;;;;;;5033224;28;20029;-82
2020/12/29 11:14:31;;;;;;;0.40;0.40;;;13.80;66.50;;;;;;5045664;28;20032;-81
2020/12/29 11:17:13;;;;;;;0.20;0.20;;;13.80;66.40;;;;;;5030502;28;20029;-78
2020/12/29 11:19:45;;;;;;;0.20;0.20;;;13.80;66.40;;;;;;5046920;28;20032;-77
2020/12/29 11:22:16;;;;;;;0.45;0.30;;;13.80;66.50;;;;;;5032066;28;20043;-80
2020/12/29 11:24:47;;;;;;;0.30;0.20;;;13.80;66.50;;;;;;5031134;28;20112;-77
2020/12/29 11:27:20;;;;;;;0.20;0.20;;;13.80;66.50;;;;;;5032541;28;20385;-78
2020/12/29 11:29:55;;;;;;;0.20;0.20;;;13.80;66.50;;;;;;5049455;28;20063;-77
2020/12/29 11:32:24;;;;;;;0.65;0.50;;;13.80;66.50;;;;;;5031401;28;20040;-82
2020/12/29 11:34:49;;;;;;;;;;;13.80;66.50;;;;;;5046441;28;20045;-78
2020/12/29 11:37:20;;;;;;;0.28;0.20;;;13.80;66.40;;;;;;5034644;28;19913;-77
2020/12/29 11:39:53;;;;;;;0.30;0.25;;;13.80;66.40;;;;;;5042517;28;20041;-77
2020/12/29 11:42:26;;;;;;;0.30;0.30;;;13.80;66.30;;;;;;5031569;28;20037;-77
2020/12/29 11:44:56;;;;;;;0.17;0.15;;;13.80;66.30;;;;;;5048618;28;20033;-82
2020/12/29 11:47:22;;;;;;;0.52;0.30;;;13.80;66.40;;;;;;5046169;28;20099;-77
2020/12/29 11:49:52;;;;;;;0.30;0.30;;;13.80;66.40;;;;;;5048180;28;20041;-78
2020/12/29 11:52:24;;;;;;;1.00;0.40;;;13.80;66.30;;;;;;5049943;28;20025;-77
2020/12/29 11:55:11;;;;;;;0.20;0.20;;;13.80;66.30;;;;;;5044923;28;20474;-77
2020/12/29 11:57:41;;;;;;;0.20;0.20;;;13.80;66.30;;;;;;5049909;28;20032;-80
2020/12/29 12:00:12;;;;;;;0.22;0.20;;;13.80;66.30;;;;;;5031951;28;20147;-77
2020/12/29 12:02:38;;;;;;;0.30;0.30;;;13.80;66.20;;;;;;5045847;28;20090;-80
2020/12/29 12:05:08;;;;;;;0.30;0.25;;;13.80;66.20;;;;;;5024363;28;20025;-77
2020/12/29 12:07:34;;;;;;;0.30;0.20;;;13.90;66.20;;;;;;5031529;28;20032;-77
2020/12/29 12:10:08;;;;;;;0.20;0.20;;;13.90;66.10;;;;;;5031526;28;20037;-78
2020/12/29 12:12:34;;;;;;;0.20;0.20;;;13.90;66.10;;;;;;5031519;28;20032;-79
2020/12/29 12:15:06;;;;;;;0.30;0.20;;;13.90;66.00;;;;;;5029650;28;20476;-81
2020/12/29 12:17:37;;;;;;;0.32;0.28;;;13.90;66.00;;;;;;5045275;28;20385;-80
2020/12/29 12:20:03;;;;;;;0.30;0.30;;;13.90;66.00;;;;;;5028641;28;20095;-77
2020/12/29 12:22:37;;;;;;;0.20;0.20;;;13.90;66.00;;;;;;5026423;28;20035;-77
2020/12/29 12:25:03;;;;;;;0.10;0.10;;;14.00;65.90;;;;;;5031980;28;20033;-78
2020/12/29 12:27:34;;;;;;;0.68;0.30;;;13.90;66.00;;;;;;5044123;28;20098;-77
2020/12/29 12:30:13;;;;;;;0.40;0.30;;;14.00;66.00;;;;;;5030378;28;20502;-77
2020/12/29 12:32:42;;;;;;;0.28;0.28;;;13.90;66.00;;;;;;5048807;28;20037;-80
2020/12/29 12:35:12;;;;;;;0.55;0.40;;;14.00;66.00;;;;;;5046699;28;20048;-77
2020/12/29 12:37:42;;;;;;;0.40;0.30;;;14.00;66.00;;;;;;5046837;28;20104;-77
2020/12/29 12:40:08;;;;;;;0.30;0.20;;;13.90;65.90;;;;;;5050179;28;20029;-76
2020/12/29 12:42:52;;;;;;;0.70;0.25;;;14.00;66.00;;;;;;5026051;28;20563;-80
2020/12/29 12:45:22;;;;;;;0.38;0.35;;;13.90;65.90;;;;;;5029189;28;20036;-77
2020/12/29 12:47:53;;;;;;;0.55;0.30;;;14.00;65.90;;;;;;5053625;28;20021;-80
2020/12/29 12:50:23;;;;;;;0.50;0.20;;;14.00;65.90;;;;;;5034321;28;20033;-77
2020/12/29 12:52:49;;;;;;;0.43;0.30;;;13.90;65.90;;;;;;5026870;28;20025;-77
2020/12/29 12:55:28;;;;;;;0.22;0.22;;;14.00;65.90;;;;;;5057398;28;20044;-78
2020/12/29 12:57:54;;;;;;;0.17;0.10;;;14.00;65.90;;;;;;5051719;28;20514;-77
2020/12/29 13:00:24;;;;;;;0.20;0.20;;;14.00;65.90;;;;;;5035011;28;20033;-78
2020/12/29 13:02:53;;;;;;;0.20;0.20;;;14.00;65.90;;;;;;5046385;28;20509;-77
2020/12/29 13:05:23;;;;;;;;;;;14.00;65.90;;;;;;5035174;28;20037;-80
2020/12/29 13:07:52;;;;;;;0.20;0.10;;;14.00;65.90;;;;;;5053436;28;19916;-80
2020/12/29 13:10:31;;;;;;;0.25;0.20;;;14.00;65.90;;;;;;5035413;28;20033;-80
2020/12/29 13:13:02;;;;;;;0.20;0.20;;;14.00;65.90;;;;;;5027914;28;20033;-80
2020/12/29 13:15:41;;;;;;;0.43;0.43;;;13.90;65.90;;;;;;5050664;28;20055;-82